フィリップスブルフ の空港の天気 - METARとTAF

プリンセス・ジュリアナ国際空港 ( TNCM / SXM ) - フィリップスブルフ (シント・マールテン島)
飛行場実況気象(Metar)
観測時間07/12 17:00 AST (07/12 21:00 UTC)
風向・風速東 5m/s
視程10km以上
天気現象
全天の4割程度の雲 雲底高度 490m
気温31℃
湿度66%
気圧1016hPa
METARTNCM 122100Z 08010KT 030V130 9999 SCT016 31/24 Q1016 NOSIG
過去の天気等 Google飛行場航空写真 Wunderground天気予報

過去48時間のMETAR

飛行場予報(TAF)
発表時間: 7/12 13:25 AST (7/12 17:25 UTC)
予報対象時間: 12日13時 AST ~ 13日14時 AST
風向・風速東 6m/s
視程10km以上
少しの雲 雲底高度 610m
TNCM 121725Z 1217/1318 09012KT P6SM FEW020